createdAt,value
2023-02-15T00:01:45.561Z,8.50
2023-02-15T00:04:16.444Z,12.80
2023-02-15T00:06:44.348Z,7.23
2023-02-15T00:09:14.232Z,8.47
2023-02-15T00:11:43.746Z,8.60
2023-02-15T00:14:13.537Z,7.77
2023-02-15T00:16:42.728Z,9.77
2023-02-15T00:19:12.156Z,7.50
2023-02-15T00:21:41.323Z,9.50
2023-02-15T00:24:11.126Z,8.67
2023-02-15T00:26:43.288Z,7.87
2023-02-15T00:29:12.458Z,6.43
2023-02-15T00:31:40.381Z,8.77
2023-02-15T00:34:12.985Z,8.60
2023-02-15T00:36:41.241Z,10.00
2023-02-15T00:39:09.660Z,7.73
2023-02-15T00:41:38.222Z,11.70
2023-02-15T00:44:08.186Z,9.93
2023-02-15T00:46:36.380Z,8.63
2023-02-15T00:49:04.932Z,9.60
2023-02-15T00:51:33.033Z,8.63
2023-02-15T00:54:00.988Z,8.10
2023-02-15T00:56:29.987Z,8.73
2023-02-15T00:58:58.091Z,10.90
2023-02-15T01:01:27.851Z,8.33
2023-02-15T01:03:55.998Z,7.77
2023-02-15T01:06:23.934Z,7.83
2023-02-15T01:08:51.884Z,7.70
2023-02-15T01:11:23.969Z,7.40
2023-02-15T01:13:53.891Z,9.17
2023-02-15T01:16:22.252Z,6.10
2023-02-15T01:18:51.696Z,7.63
2023-02-15T01:21:22.417Z,10.33
2023-02-15T01:23:50.467Z,7.13
2023-02-15T01:26:19.140Z,8.60
2023-02-15T01:28:47.431Z,7.37
2023-02-15T01:31:18.409Z,7.53
2023-02-15T01:33:46.760Z,5.97
2023-02-15T01:36:18.347Z,7.27
2023-02-15T01:38:46.263Z,9.57
2023-02-15T01:41:24.501Z,6.37
2023-02-15T01:43:55.009Z,6.73
2023-02-15T01:46:28.941Z,10.40
2023-02-15T01:49:02.636Z,6.67
2023-02-15T01:51:35.530Z,8.23
2023-02-15T01:54:07.960Z,13.83
2023-02-15T01:56:40.170Z,8.00
2023-02-15T01:59:11.547Z,8.63
2023-02-15T02:01:40.240Z,11.33
2023-02-15T02:04:15.632Z,7.57
2023-02-15T02:06:48.705Z,5.87
2023-02-15T02:09:17.131Z,8.33
2023-02-15T02:11:48.669Z,7.63
2023-02-15T02:14:17.627Z,6.07
2023-02-15T02:16:53.679Z,5.53
2023-02-15T02:19:51.198Z,7.00
2023-02-15T02:22:46.676Z,11.53
2023-02-15T02:25:29.611Z,10.17
2023-02-15T02:28:15.316Z,8.10
2023-02-15T02:30:57.477Z,6.47
2023-02-15T02:33:56.279Z,8.13
2023-02-15T02:36:30.511Z,6.73
2023-02-15T02:39:09.722Z,9.87
2023-02-15T02:41:46.318Z,8.77
2023-02-15T02:44:20.314Z,7.13
2023-02-15T02:46:54.279Z,8.47
2023-02-15T02:49:36.502Z,8.93
2023-02-15T02:52:06.791Z,7.27
2023-02-15T02:54:36.834Z,12.37
2023-02-15T02:57:10.858Z,8.47
2023-02-15T02:59:44.116Z,8.07
2023-02-15T03:02:15.774Z,8.30
2023-02-15T03:04:49.744Z,8.77
2023-02-15T03:07:23.102Z,10.57
2023-02-15T03:09:53.811Z,8.50
2023-02-15T03:12:26.412Z,7.67
2023-02-15T03:14:57.380Z,9.63
2023-02-15T03:17:29.682Z,7.80
2023-02-15T03:20:02.774Z,12.33
2023-02-15T03:22:33.638Z,9.70
2023-02-15T03:25:06.697Z,6.80
2023-02-15T03:27:38.369Z,6.63
2023-02-15T03:30:08.796Z,7.97
2023-02-15T03:32:39.533Z,10.10
2023-02-15T03:35:09.490Z,10.43
2023-02-15T03:37:43.078Z,8.00
2023-02-15T03:40:36.311Z,10.43
2023-02-15T03:43:11.703Z,10.03
2023-02-15T03:45:55.757Z,10.47
2023-02-15T03:48:28.521Z,9.87
2023-02-15T03:51:20.976Z,9.17
2023-02-15T03:53:51.153Z,11.50
2023-02-15T03:56:18.984Z,10.90
2023-02-15T03:59:04.437Z,12.47
2023-02-15T04:01:54.830Z,10.23
2023-02-15T04:04:25.884Z,8.50
2023-02-15T04:06:55.131Z,12.80
2023-02-15T04:09:40.693Z,9.10
2023-02-15T04:12:08.603Z,11.60
2023-02-15T04:14:54.572Z,10.93
2023-02-15T04:17:22.559Z,11.70
2023-02-15T04:20:08.145Z,12.43
2023-02-15T04:22:54.923Z,15.50
2023-02-15T04:25:22.930Z,13.90
2023-02-15T04:27:52.396Z,11.23
2023-02-15T04:30:22.833Z,12.63
2023-02-15T04:32:50.867Z,14.07
2023-02-15T04:35:19.449Z,12.37
2023-02-15T04:37:48.669Z,14.37
2023-02-15T04:40:19.493Z,13.53
2023-02-15T04:42:49.995Z,14.30
2023-02-15T04:45:18.097Z,17.27
2023-02-15T04:47:46.062Z,15.40
2023-02-15T04:50:14.050Z,13.97
2023-02-15T04:52:41.892Z,13.53
2023-02-15T04:55:11.208Z,15.60
2023-02-15T04:57:39.213Z,12.77
2023-02-15T05:00:09.879Z,16.37
2023-02-15T05:02:37.859Z,14.33
2023-02-15T05:05:06.083Z,17.50
2023-02-15T05:07:33.948Z,15.87
2023-02-15T05:10:01.890Z,18.47
2023-02-15T05:12:31.299Z,17.83
2023-02-15T05:14:59.106Z,15.13
2023-02-15T05:17:27.014Z,14.23
2023-02-15T05:19:54.896Z,18.07
2023-02-15T05:22:22.707Z,15.97
2023-02-15T05:25:08.020Z,17.50
2023-02-15T05:28:05.106Z,16.87
2023-02-15T05:30:33.405Z,14.67
2023-02-15T05:33:01.559Z,17.23
2023-02-15T05:35:29.415Z,16.70
2023-02-15T05:37:57.330Z,15.87
2023-02-15T05:40:25.296Z,18.73
2023-02-15T05:42:54.547Z,15.57
2023-02-15T05:45:22.460Z,15.97
2023-02-15T05:47:50.432Z,18.53
2023-02-15T05:50:18.715Z,15.90
2023-02-15T05:52:46.732Z,17.83
2023-02-15T05:55:14.909Z,18.77
2023-02-15T05:57:42.822Z,16.10
2023-02-15T06:00:15.150Z,18.47
2023-02-15T06:02:43.218Z,18.20
2023-02-15T06:05:11.323Z,16.83
2023-02-15T06:07:39.329Z,16.47
2023-02-15T06:10:08.673Z,18.60
2023-02-15T06:12:36.632Z,16.23
2023-02-15T06:15:05.427Z,18.33
2023-02-15T06:17:34.783Z,27.40
2023-02-15T06:20:02.786Z,18.33
2023-02-15T06:22:30.811Z,19.87
2023-02-15T06:24:58.813Z,23.50
2023-02-15T06:27:26.666Z,17.23
2023-02-15T06:29:54.803Z,18.77
2023-02-15T06:32:22.724Z,19.17
2023-02-15T06:34:52.349Z,15.63
2023-02-15T06:37:20.326Z,19.93
2023-02-15T06:39:48.281Z,18.50
2023-02-15T06:42:16.116Z,20.47
2023-02-15T06:44:44.038Z,18.10
2023-02-15T06:47:12.060Z,18.53
2023-02-15T06:49:40.039Z,20.37
2023-02-15T06:52:09.455Z,16.83
2023-02-15T06:54:37.362Z,15.23
2023-02-15T06:57:05.242Z,16.47
2023-02-15T06:59:33.339Z,18.47
2023-02-15T07:02:01.353Z,13.27
2023-02-15T07:04:31.032Z,15.57
2023-02-15T07:06:59.290Z,16.07
2023-02-15T07:09:28.686Z,17.33
2023-02-15T07:12:25.790Z,16.87
2023-02-15T07:14:53.830Z,22.57
2023-02-15T07:17:35.553Z,15.47
2023-02-15T07:20:04.857Z,12.30
2023-02-15T07:22:35.085Z,14.27
2023-02-15T07:25:04.637Z,15.83
2023-02-15T07:27:33.392Z,14.20
2023-02-15T07:30:01.476Z,14.20
2023-02-15T07:32:31.386Z,18.10
2023-02-15T07:34:59.958Z,15.47
2023-02-15T07:37:28.249Z,19.77
2023-02-15T07:39:56.272Z,19.30
2023-02-15T07:42:25.881Z,20.37
2023-02-15T07:44:53.950Z,15.40
2023-02-15T07:47:21.836Z,15.03
2023-02-15T07:49:51.468Z,20.00
2023-02-15T07:52:19.510Z,14.43
2023-02-15T07:54:47.351Z,18.60
2023-02-15T07:57:15.436Z,15.30
2023-02-15T07:59:44.625Z,11.67
2023-02-15T08:02:13.186Z,12.90
2023-02-15T08:04:41.422Z,11.60
2023-02-15T08:07:09.260Z,10.30
2023-02-15T08:09:37.138Z,14.27
2023-02-15T08:12:06.065Z,12.83
2023-02-15T08:14:33.940Z,17.07
2023-02-15T08:17:03.768Z,13.87
2023-02-15T08:19:33.856Z,12.47
2023-02-15T08:22:03.550Z,11.40
2023-02-15T08:24:33.748Z,14.00
2023-02-15T08:27:06.043Z,11.70
2023-02-15T08:29:35.472Z,9.97
2023-02-15T08:32:08.022Z,10.80
2023-02-15T08:34:37.590Z,12.83
2023-02-15T08:37:07.133Z,11.83
2023-02-15T08:39:35.198Z,12.60
2023-02-15T08:42:03.153Z,11.33
2023-02-15T08:44:31.213Z,8.90
2023-02-15T08:47:03.874Z,12.77
2023-02-15T08:49:33.629Z,14.00
2023-02-15T08:52:01.773Z,11.73
2023-02-15T08:54:29.773Z,13.93
2023-02-15T08:56:57.899Z,10.97
2023-02-15T08:59:27.851Z,13.43
2023-02-15T09:01:56.733Z,11.83
2023-02-15T09:04:24.778Z,13.20
2023-02-15T09:06:54.312Z,12.87
2023-02-15T09:09:23.140Z,10.90
2023-02-15T09:11:57.833Z,9.03
2023-02-15T09:14:28.493Z,11.93
2023-02-15T09:16:57.218Z,11.97
2023-02-15T09:19:26.999Z,11.27
2023-02-15T09:21:56.469Z,9.40
2023-02-15T09:24:25.961Z,15.77
2023-02-15T09:26:53.801Z,11.27
2023-02-15T09:29:21.969Z,9.00
2023-02-15T09:31:51.681Z,10.23
2023-02-15T09:34:21.371Z,11.83
2023-02-15T09:36:49.783Z,11.10
2023-02-15T09:39:21.284Z,7.97
2023-02-15T09:42:18.032Z,9.07
2023-02-15T09:45:19.004Z,8.27
2023-02-15T09:48:13.475Z,7.37
2023-02-15T09:50:54.441Z,6.97
2023-02-15T09:53:38.171Z,5.43
2023-02-15T09:56:17.132Z,7.43
2023-02-15T09:58:54.626Z,9.00
2023-02-15T10:01:35.896Z,9.37
2023-02-15T10:04:26.129Z,9.20
2023-02-15T10:07:08.344Z,10.10
2023-02-15T10:09:51.353Z,7.73
2023-02-15T10:12:45.875Z,9.10
2023-02-15T10:15:24.248Z,12.87
2023-02-15T10:18:07.250Z,8.20
2023-02-15T10:20:46.012Z,10.77
2023-02-15T10:23:32.195Z,10.13
2023-02-15T10:26:06.966Z,11.37
2023-02-15T10:28:44.750Z,10.27
2023-02-15T10:31:22.330Z,10.03
2023-02-15T10:33:56.320Z,10.90
2023-02-15T10:36:38.304Z,10.13
2023-02-15T10:39:16.827Z,9.90
2023-02-15T10:41:53.866Z,10.77
2023-02-15T10:44:37.436Z,10.47
2023-02-15T10:47:18.943Z,11.70
2023-02-15T10:50:04.893Z,9.97
2023-02-15T10:52:46.771Z,10.20
2023-02-15T10:55:19.604Z,10.33
2023-02-15T10:57:58.207Z,9.90
2023-02-15T11:00:39.403Z,11.83
2023-02-15T11:03:24.308Z,13.23
2023-02-15T11:06:03.040Z,12.20
2023-02-15T11:08:36.393Z,9.97
2023-02-15T11:11:09.143Z,8.40
2023-02-15T11:13:41.583Z,11.77
2023-02-15T11:16:17.664Z,10.63
2023-02-15T11:18:53.432Z,12.00
2023-02-15T11:21:25.281Z,12.43
2023-02-15T11:23:53.979Z,14.97
2023-02-15T11:26:29.159Z,10.60
2023-02-15T11:29:01.285Z,11.77
2023-02-15T11:31:45.709Z,13.53
2023-02-15T11:34:21.295Z,11.53
2023-02-15T11:36:52.014Z,13.10
2023-02-15T11:39:22.859Z,11.60
2023-02-15T11:41:55.206Z,12.10
2023-02-15T11:44:27.370Z,14.60
2023-02-15T11:46:56.806Z,13.57
2023-02-15T11:49:28.698Z,12.87
2023-02-15T11:51:58.764Z,15.53
2023-02-15T11:54:30.139Z,14.03
2023-02-15T11:57:01.675Z,10.87
2023-02-15T11:59:34.061Z,11.00
2023-02-15T12:02:03.491Z,14.60
2023-02-15T12:04:35.425Z,13.60
2023-02-15T12:07:13.473Z,12.50
2023-02-15T12:09:50.334Z,11.20
2023-02-15T12:12:27.219Z,10.87
2023-02-15T12:14:56.972Z,15.07
2023-02-15T12:17:29.140Z,12.90
2023-02-15T12:19:59.792Z,14.20
2023-02-15T12:22:30.862Z,12.77
2023-02-15T12:25:02.239Z,13.80
2023-02-15T12:27:33.045Z,14.63
2023-02-15T12:30:06.569Z,14.43
2023-02-15T12:32:38.403Z,16.80
2023-02-15T12:35:15.039Z,11.57
2023-02-15T12:37:56.077Z,12.73
2023-02-15T12:40:26.983Z,13.20
2023-02-15T12:42:54.983Z,13.57
2023-02-15T12:45:26.445Z,17.37
2023-02-15T12:48:18.825Z,16.00
2023-02-15T12:50:55.138Z,14.13
2023-02-15T12:53:35.840Z,14.13
2023-02-15T12:56:07.617Z,14.20
2023-02-15T12:58:36.828Z,15.57
2023-02-15T13:01:13.172Z,16.07
2023-02-15T13:04:00.129Z,17.77
2023-02-15T13:06:29.695Z,14.53
2023-02-15T13:09:00.571Z,14.67
2023-02-15T13:11:35.160Z,12.13
2023-02-15T13:14:06.117Z,17.80
2023-02-15T13:16:37.730Z,16.43
2023-02-15T13:19:14.847Z,13.90
2023-02-15T13:21:46.497Z,18.23
2023-02-15T13:24:22.085Z,13.23
2023-02-15T13:26:50.441Z,15.60
2023-02-15T13:29:23.544Z,15.67
2023-02-15T13:31:54.537Z,11.93
2023-02-15T13:34:28.301Z,18.17
2023-02-15T13:37:04.144Z,13.87
2023-02-15T13:39:41.321Z,20.47
2023-02-15T13:42:22.639Z,23.40
2023-02-15T13:45:08.527Z,17.00
2023-02-15T13:47:46.133Z,17.87
2023-02-15T13:50:30.194Z,28.77
2023-02-15T13:53:13.056Z,15.07
2023-02-15T13:55:46.354Z,16.67
2023-02-15T13:58:58.687Z,18.77
2023-02-15T14:01:36.534Z,16.93
2023-02-15T14:04:18.892Z,20.07
2023-02-15T14:07:05.920Z,12.37
2023-02-15T14:09:46.887Z,15.73
2023-02-15T14:12:36.911Z,16.07
2023-02-15T14:15:20.271Z,13.70
2023-02-15T14:17:58.004Z,19.83
2023-02-15T14:20:34.766Z,15.03
2023-02-15T14:23:12.794Z,14.50
2023-02-15T14:25:49.659Z,13.23
2023-02-15T14:28:23.020Z,13.93
2023-02-15T14:30:53.838Z,16.77
2023-02-15T14:33:35.268Z,15.30
2023-02-15T14:36:07.374Z,12.47
2023-02-15T14:38:54.994Z,13.67
2023-02-15T14:41:31.153Z,13.80
2023-02-15T14:44:09.657Z,13.87
2023-02-15T14:46:45.146Z,12.80
2023-02-15T14:49:16.325Z,14.43
2023-02-15T14:52:00.021Z,14.20
2023-02-15T14:55:11.168Z,12.20
2023-02-15T14:57:40.457Z,14.53
2023-02-15T15:00:40.131Z,13.27
2023-02-15T15:03:22.844Z,16.37
2023-02-15T15:05:53.788Z,13.27
2023-02-15T15:08:34.622Z,10.83
2023-02-15T15:11:43.518Z,13.00
2023-02-15T15:14:41.344Z,14.40
2023-02-15T15:17:14.196Z,12.53
2023-02-15T15:20:14.646Z,13.20
2023-02-15T15:22:44.199Z,12.73
2023-02-15T15:25:14.738Z,10.03
2023-02-15T15:27:53.758Z,14.27
2023-02-15T15:31:01.746Z,11.70
2023-02-15T15:34:11.323Z,13.50
2023-02-15T15:37:26.582Z,16.57
2023-02-15T15:40:33.326Z,13.20
2023-02-15T15:43:49.625Z,12.77
2023-02-15T15:46:45.226Z,10.77
2023-02-15T15:49:17.259Z,11.73
2023-02-15T15:51:47.328Z,16.23
2023-02-15T15:54:18.774Z,12.87
2023-02-15T15:56:51.091Z,12.63
2023-02-15T15:59:24.305Z,13.40
2023-02-15T16:01:52.531Z,12.27
2023-02-15T16:04:29.994Z,14.87
2023-02-15T16:06:58.950Z,12.33
2023-02-15T16:09:29.198Z,13.50
2023-02-15T16:12:01.517Z,11.10
2023-02-15T16:14:32.919Z,12.60
2023-02-15T16:17:03.923Z,18.17
2023-02-15T16:19:35.846Z,11.03
2023-02-15T16:22:05.648Z,15.07
2023-02-15T16:24:52.459Z,20.10
2023-02-15T16:27:32.457Z,11.87
2023-02-15T16:30:20.286Z,12.00
2023-02-15T16:32:48.508Z,14.23
2023-02-15T16:35:17.997Z,18.00
2023-02-15T16:37:46.847Z,15.93
2023-02-15T16:40:42.508Z,24.43
2023-02-15T16:43:18.748Z,18.33
2023-02-15T16:45:48.874Z,16.07
2023-02-15T16:48:23.480Z,15.67
2023-02-15T16:50:55.358Z,10.87
2023-02-15T16:53:26.052Z,13.10
2023-02-15T16:55:57.425Z,10.90
2023-02-15T16:58:31.135Z,14.10
2023-02-15T17:01:04.145Z,13.17
2023-02-15T17:03:32.301Z,14.93
2023-02-15T17:06:01.906Z,11.20
2023-02-15T17:08:33.024Z,14.10
2023-02-15T17:11:17.372Z,12.27
2023-02-15T17:14:15.568Z,13.47
2023-02-15T17:16:50.152Z,15.07
2023-02-15T17:19:21.892Z,16.63
2023-02-15T17:21:53.494Z,13.40
2023-02-15T17:24:27.440Z,14.20
2023-02-15T17:27:00.800Z,11.13
2023-02-15T17:29:36.745Z,11.07
2023-02-15T17:32:07.331Z,11.13
2023-02-15T17:34:52.496Z,20.17
2023-02-15T17:37:32.055Z,13.43
2023-02-15T17:40:01.537Z,13.53
2023-02-15T17:42:29.938Z,11.50
2023-02-15T17:44:57.729Z,12.40
2023-02-15T17:47:30.245Z,12.07
2023-02-15T17:49:58.276Z,13.90
2023-02-15T17:52:31.710Z,11.33
2023-02-15T17:55:17.356Z,12.97
2023-02-15T17:57:45.872Z,12.27
2023-02-15T18:00:33.974Z,12.10
2023-02-15T18:03:20.824Z,11.57
2023-02-15T18:06:06.241Z,10.87
2023-02-15T18:08:51.345Z,13.27
2023-02-15T18:11:38.052Z,10.80
2023-02-15T18:14:07.929Z,9.80
2023-02-15T18:16:38.832Z,12.77
2023-02-15T18:19:14.748Z,15.10
2023-02-15T18:21:42.726Z,11.07
2023-02-15T18:24:17.058Z,8.63
2023-02-15T18:26:45.218Z,10.47
2023-02-15T18:29:13.163Z,12.67
2023-02-15T18:31:42.385Z,13.30
2023-02-15T18:34:23.117Z,14.00
2023-02-15T18:36:51.567Z,12.00
2023-02-15T18:39:27.780Z,15.50
2023-02-15T18:41:55.891Z,14.20
2023-02-15T18:44:23.907Z,16.43
2023-02-15T18:46:51.760Z,13.30
2023-02-15T18:49:21.104Z,13.53
2023-02-15T18:51:49.319Z,15.03
2023-02-15T18:54:20.413Z,15.77
2023-02-15T18:56:54.914Z,17.83
2023-02-15T18:59:23.520Z,14.57
2023-02-15T19:01:51.740Z,15.23
2023-02-15T19:04:21.755Z,16.63
2023-02-15T19:06:50.905Z,15.60
2023-02-15T19:09:22.497Z,14.80
2023-02-15T19:11:52.870Z,14.60
2023-02-15T19:14:26.530Z,15.20
2023-02-15T19:16:54.749Z,16.17
2023-02-15T19:19:24.372Z,16.70
2023-02-15T19:21:53.106Z,13.73
2023-02-15T19:24:25.299Z,17.87
2023-02-15T19:26:53.910Z,16.07
2023-02-15T19:29:26.791Z,16.93
2023-02-15T19:31:55.094Z,18.10
2023-02-15T19:34:25.014Z,18.67
2023-02-15T19:36:54.711Z,16.73
2023-02-15T19:39:26.668Z,18.93
2023-02-15T19:41:54.822Z,18.83
2023-02-15T19:44:23.321Z,18.47
2023-02-15T19:46:52.366Z,17.40
2023-02-15T19:49:20.296Z,15.80
2023-02-15T19:51:50.034Z,17.13
2023-02-15T19:54:30.906Z,19.83
2023-02-15T19:56:59.260Z,19.60
2023-02-15T19:59:29.831Z,16.20
2023-02-15T20:01:58.235Z,19.23
2023-02-15T20:04:26.561Z,17.40
2023-02-15T20:06:58.086Z,20.33
2023-02-15T20:09:29.927Z,22.00
2023-02-15T20:11:57.890Z,19.37
2023-02-15T20:14:25.706Z,18.20
2023-02-15T20:16:53.835Z,20.27
2023-02-15T20:19:21.755Z,23.13
2023-02-15T20:21:55.093Z,21.43
2023-02-15T20:24:28.263Z,20.53
2023-02-15T20:26:56.173Z,19.10
2023-02-15T20:29:24.062Z,20.73
2023-02-15T20:31:55.146Z,19.50
2023-02-15T20:34:23.338Z,18.30
2023-02-15T20:36:52.874Z,22.10
2023-02-15T20:39:21.082Z,19.90
2023-02-15T20:41:50.401Z,18.73
2023-02-15T20:44:21.648Z,17.63
2023-02-15T20:46:51.056Z,16.70
2023-02-15T20:49:19.198Z,19.07
2023-02-15T20:51:48.103Z,18.33
2023-02-15T20:54:18.824Z,18.90
2023-02-15T20:56:47.628Z,17.00
2023-02-15T20:59:29.097Z,20.83
2023-02-15T21:02:00.385Z,19.33
2023-02-15T21:04:32.114Z,17.73
2023-02-15T21:07:00.296Z,18.30
2023-02-15T21:09:28.783Z,17.13
2023-02-15T21:11:59.180Z,17.00
2023-02-15T21:14:29.832Z,16.33
2023-02-15T21:16:59.566Z,18.17
2023-02-15T21:19:28.760Z,18.10
2023-02-15T21:21:57.552Z,16.67
2023-02-15T21:24:27.854Z,16.50
2023-02-15T21:26:57.276Z,18.07
2023-02-15T21:29:29.437Z,17.93
2023-02-15T21:31:58.438Z,17.47
2023-02-15T21:34:26.443Z,19.93
2023-02-15T21:36:54.939Z,18.17
2023-02-15T21:39:25.500Z,16.67
2023-02-15T21:42:13.402Z,15.90
2023-02-15T21:45:00.712Z,15.60
2023-02-15T21:47:48.164Z,16.33
2023-02-15T21:50:36.639Z,16.87
2023-02-15T21:53:05.887Z,19.33
2023-02-15T21:55:34.458Z,19.77
2023-02-15T21:58:02.656Z,21.70
2023-02-15T22:00:33.987Z,18.83
2023-02-15T22:03:02.780Z,18.63
2023-02-15T22:05:32.393Z,19.87
2023-02-15T22:08:00.998Z,19.73
2023-02-15T22:10:31.532Z,18.70
2023-02-15T22:13:01.523Z,22.00
2023-02-15T22:15:36.447Z,22.50
2023-02-15T22:18:05.442Z,18.47
2023-02-15T22:20:33.287Z,18.83
2023-02-15T22:23:01.236Z,21.27
2023-02-15T22:25:29.290Z,18.73
2023-02-15T22:27:57.310Z,20.43
2023-02-15T22:30:27.634Z,19.57
2023-02-15T22:32:58.395Z,20.87
2023-02-15T22:35:28.429Z,19.27
2023-02-15T22:37:56.723Z,19.83
2023-02-15T22:40:30.322Z,21.27
2023-02-15T22:43:00.741Z,21.87
2023-02-15T22:45:29.399Z,21.13
2023-02-15T22:48:01.430Z,19.77
2023-02-15T22:50:31.335Z,20.03
2023-02-15T22:53:01.239Z,19.87
2023-02-15T22:55:31.919Z,24.20
2023-02-15T22:58:00.162Z,22.40
2023-02-15T23:00:30.677Z,21.33
2023-02-15T23:03:00.316Z,20.83
2023-02-15T23:05:30.848Z,20.50
2023-02-15T23:07:58.982Z,20.50
2023-02-15T23:10:30.286Z,24.73
2023-02-15T23:13:17.876Z,24.70
2023-02-15T23:15:49.086Z,19.97
2023-02-15T23:18:22.684Z,24.30
2023-02-15T23:20:53.588Z,22.77
2023-02-15T23:23:26.909Z,21.97
2023-02-15T23:25:55.045Z,24.43
2023-02-15T23:28:27.577Z,22.47
2023-02-15T23:30:56.254Z,22.73
2023-02-15T23:33:28.666Z,21.83
2023-02-15T23:35:56.714Z,21.43
2023-02-15T23:38:28.297Z,26.57
2023-02-15T23:41:16.986Z,21.33
2023-02-15T23:43:48.933Z,24.70
2023-02-15T23:46:26.060Z,26.60
2023-02-15T23:48:55.706Z,19.13
2023-02-15T23:51:29.514Z,21.40
2023-02-15T23:53:57.724Z,23.80
2023-02-15T23:56:25.663Z,21.67
2023-02-15T23:58:53.634Z,21.80
